createdAt,value
2022-10-17T00:01:09.304Z,82.59
2022-10-17T00:03:39.110Z,82.54
2022-10-17T00:06:08.712Z,82.31
2022-10-17T00:08:37.618Z,82.37
2022-10-17T00:11:07.800Z,82.58
2022-10-17T00:13:37.391Z,83.01
2022-10-17T00:16:06.165Z,83.06
2022-10-17T00:18:34.366Z,83.12
2022-10-17T00:21:02.643Z,83.04
2022-10-17T00:23:31.349Z,82.97
2022-10-17T00:26:00.563Z,82.92
2022-10-17T00:28:28.959Z,83.01
2022-10-17T00:31:00.771Z,82.94
2022-10-17T00:33:29.915Z,83.07
2022-10-17T00:36:05.501Z,83.37
2022-10-17T00:38:33.965Z,83.37
2022-10-17T00:41:02.181Z,83.51
2022-10-17T00:43:30.803Z,83.41
2022-10-17T00:46:01.036Z,83.59
2022-10-17T00:48:29.410Z,83.70
2022-10-17T00:50:57.783Z,83.58
2022-10-17T00:53:27.249Z,83.62
2022-10-17T00:55:55.724Z,83.51
2022-10-17T00:58:24.282Z,83.57
2022-10-17T01:00:52.749Z,83.75
2022-10-17T01:03:22.468Z,83.85
2022-10-17T01:05:51.276Z,83.71
2022-10-17T01:08:19.647Z,83.70
2022-10-17T01:10:59.422Z,83.98
2022-10-17T01:13:35.118Z,83.99
2022-10-17T01:16:12.707Z,84.04
2022-10-17T01:18:55.683Z,84.02
2022-10-17T01:21:33.925Z,84.18
2022-10-17T01:24:33.424Z,84.39
2022-10-17T01:27:46.755Z,84.40
2022-10-17T01:30:48.419Z,84.45
2022-10-17T01:33:25.103Z,84.95
2022-10-17T01:36:03.239Z,85.34
2022-10-17T01:38:39.141Z,85.39
2022-10-17T01:41:13.724Z,85.36
2022-10-17T01:43:48.175Z,85.61
2022-10-17T01:46:21.885Z,85.57
2022-10-17T01:48:51.407Z,85.55
2022-10-17T01:51:24.276Z,85.71
2022-10-17T01:53:58.245Z,85.65
2022-10-17T01:56:29.085Z,85.92
2022-10-17T01:59:01.616Z,86.04
2022-10-17T02:01:33.198Z,86.03
2022-10-17T02:04:05.065Z,85.87
2022-10-17T02:06:36.138Z,85.92
2022-10-17T02:09:18.165Z,85.93
2022-10-17T02:12:01.268Z,85.94
2022-10-17T02:14:43.101Z,86.00
2022-10-17T02:17:21.654Z,85.99
2022-10-17T02:20:00.656Z,86.09
2022-10-17T02:22:38.951Z,86.07
2022-10-17T02:25:15.490Z,85.98
2022-10-17T02:27:49.117Z,85.80
2022-10-17T02:30:24.755Z,85.90
2022-10-17T02:32:59.311Z,86.20
2022-10-17T02:35:33.567Z,86.24
2022-10-17T02:38:04.969Z,86.20
2022-10-17T02:40:34.111Z,86.03
2022-10-17T02:43:02.294Z,86.03
2022-10-17T02:45:35.995Z,85.87
2022-10-17T02:48:10.714Z,85.73
2022-10-17T02:50:49.977Z,85.74
2022-10-17T02:53:26.190Z,85.06
2022-10-17T02:56:00.613Z,84.79
2022-10-17T02:58:34.010Z,84.81
2022-10-17T03:01:03.524Z,84.87
2022-10-17T03:03:33.447Z,84.87
2022-10-17T03:06:04.536Z,85.06
2022-10-17T03:08:32.825Z,84.92
2022-10-17T03:11:02.130Z,84.86
2022-10-17T03:13:33.033Z,84.50
2022-10-17T03:16:03.234Z,84.30
2022-10-17T03:18:33.992Z,83.91
2022-10-17T03:21:05.787Z,83.25
2022-10-17T03:23:34.105Z,82.23
2022-10-17T03:26:05.170Z,81.88
2022-10-17T03:28:35.429Z,80.80
2022-10-17T03:31:08.642Z,80.73
2022-10-17T03:33:38.515Z,80.72
2022-10-17T03:36:09.730Z,80.04
2022-10-17T03:38:38.481Z,79.49
2022-10-17T03:41:08.001Z,79.21
2022-10-17T03:43:37.647Z,79.33
2022-10-17T03:46:05.921Z,78.92
2022-10-17T03:48:35.491Z,78.77
2022-10-17T03:51:06.921Z,78.73
2022-10-17T03:53:40.835Z,78.88
2022-10-17T03:56:14.110Z,78.91
2022-10-17T03:58:43.289Z,78.53
2022-10-17T04:01:15.905Z,78.49
2022-10-17T04:03:45.239Z,78.76
2022-10-17T04:06:14.317Z,78.91
2022-10-17T04:08:47.141Z,79.14
2022-10-17T04:11:22.082Z,79.39
2022-10-17T04:13:55.017Z,79.39
2022-10-17T04:16:24.686Z,78.91
2022-10-17T04:19:00.951Z,79.02
2022-10-17T04:21:33.161Z,78.85
2022-10-17T04:24:07.835Z,78.79
2022-10-17T04:26:45.831Z,78.77
2022-10-17T04:29:15.329Z,78.81
2022-10-17T04:31:45.635Z,79.04
2022-10-17T04:34:36.691Z,79.36
2022-10-17T04:37:04.923Z,79.55
2022-10-17T04:39:35.926Z,79.72
2022-10-17T04:42:05.000Z,79.92
2022-10-17T04:44:35.432Z,79.70
2022-10-17T04:47:03.742Z,79.68
2022-10-17T04:49:32.249Z,79.46
2022-10-17T04:52:08.793Z,79.24
2022-10-17T04:54:48.442Z,79.21
2022-10-17T04:57:16.815Z,79.32
2022-10-17T04:59:53.034Z,79.75
2022-10-17T05:02:52.557Z,80.21
2022-10-17T05:05:21.553Z,80.39
2022-10-17T05:07:52.822Z,80.19
2022-10-17T05:10:26.342Z,80.01
2022-10-17T05:12:56.050Z,79.88
2022-10-17T05:15:27.753Z,79.72
2022-10-17T05:17:57.192Z,79.64
2022-10-17T05:20:28.068Z,79.30
2022-10-17T05:22:56.335Z,79.37
2022-10-17T05:25:26.199Z,79.40
2022-10-17T05:27:55.240Z,79.62
2022-10-17T05:30:24.221Z,79.62
2022-10-17T05:32:57.545Z,79.69
2022-10-17T05:35:26.126Z,79.67
2022-10-17T05:37:54.621Z,79.42
2022-10-17T05:40:26.648Z,79.19
2022-10-17T05:42:55.941Z,79.21
2022-10-17T05:45:26.342Z,79.45
2022-10-17T05:47:54.545Z,79.35
2022-10-17T05:50:24.284Z,79.08
2022-10-17T05:53:06.734Z,78.71
2022-10-17T05:55:41.816Z,78.56
2022-10-17T05:58:17.631Z,78.89
2022-10-17T06:00:59.411Z,79.04
2022-10-17T06:03:28.833Z,79.22
2022-10-17T06:05:57.531Z,79.30
2022-10-17T06:08:26.151Z,79.35
2022-10-17T06:10:55.930Z,79.32
2022-10-17T06:13:24.158Z,79.24
2022-10-17T06:15:53.806Z,79.40
2022-10-17T06:18:22.425Z,79.58
2022-10-17T06:20:51.102Z,79.59
2022-10-17T06:23:21.163Z,79.61
2022-10-17T06:26:00.938Z,79.62
2022-10-17T06:28:31.071Z,79.76
2022-10-17T06:30:59.623Z,80.01
2022-10-17T06:33:28.500Z,80.47
2022-10-17T06:35:57.725Z,81.39
2022-10-17T06:38:27.176Z,82.07
2022-10-17T06:41:08.337Z,82.80
2022-10-17T06:43:37.306Z,83.49
2022-10-17T06:46:26.768Z,84.35
2022-10-17T06:49:01.046Z,85.16
2022-10-17T06:51:49.484Z,86.22
2022-10-17T06:54:20.736Z,86.84
2022-10-17T06:56:54.240Z,87.67
2022-10-17T06:59:40.792Z,88.18
2022-10-17T07:02:15.071Z,88.42
2022-10-17T07:04:47.172Z,88.64
2022-10-17T07:07:15.559Z,89.10
2022-10-17T07:09:43.816Z,89.06
2022-10-17T07:12:13.379Z,89.58
2022-10-17T07:14:47.384Z,89.86
2022-10-17T07:17:15.632Z,90.21
2022-10-17T07:19:44.536Z,90.50
2022-10-17T07:22:14.016Z,90.93
2022-10-17T07:24:45.870Z,91.24
2022-10-17T07:27:39.824Z,91.52
2022-10-17T07:30:09.862Z,91.78
2022-10-17T07:32:40.621Z,91.87
2022-10-17T07:35:10.860Z,92.10
2022-10-17T07:37:40.191Z,92.41
2022-10-17T07:40:09.987Z,92.66
2022-10-17T07:45:15.678Z,93.43
2022-10-17T07:47:44.503Z,93.82
2022-10-17T07:50:16.515Z,94.14
2022-10-17T07:52:44.885Z,94.36
2022-10-17T07:55:13.145Z,94.41
2022-10-17T07:57:42.758Z,94.36
2022-10-17T08:00:11.695Z,94.19
2022-10-17T08:02:42.797Z,94.01
2022-10-17T08:05:10.992Z,94.05
2022-10-17T08:07:40.353Z,94.04
2022-10-17T08:12:44.312Z,93.77
2022-10-17T08:15:13.063Z,93.81
2022-10-17T08:17:41.477Z,93.75
2022-10-17T08:20:11.505Z,93.65
2022-10-17T08:22:39.650Z,93.82
2022-10-17T08:25:08.848Z,93.95
2022-10-17T08:27:37.077Z,94.01
2022-10-17T08:30:07.556Z,94.07
2022-10-17T08:32:35.718Z,94.11
2022-10-17T08:35:03.918Z,94.00
2022-10-17T08:37:32.771Z,93.85
2022-10-17T08:40:01.137Z,93.61
2022-10-17T08:43:06.427Z,93.37
2022-10-17T08:45:40.017Z,93.22
2022-10-17T08:48:13.653Z,92.77
2022-10-17T08:50:45.395Z,92.26
2022-10-17T08:53:19.170Z,92.03
2022-10-17T08:55:48.680Z,92.29
2022-10-17T08:58:21.105Z,92.46
2022-10-17T09:00:59.170Z,92.53
2022-10-17T09:03:45.087Z,92.32
2022-10-17T09:06:24.757Z,91.85
2022-10-17T09:09:04.105Z,91.50
2022-10-17T09:11:54.291Z,91.72
2022-10-17T09:14:58.943Z,91.94
2022-10-17T09:17:39.421Z,91.66
2022-10-17T09:20:14.128Z,91.45
2022-10-17T09:22:48.828Z,91.45
2022-10-17T09:25:20.397Z,91.25
2022-10-17T09:27:51.013Z,90.94
2022-10-17T09:30:45.839Z,90.89
2022-10-17T09:33:34.301Z,90.98
2022-10-17T09:36:06.068Z,91.22
2022-10-17T09:38:40.675Z,91.37
2022-10-17T09:41:43.020Z,91.66
2022-10-17T09:44:16.838Z,91.96
2022-10-17T09:46:56.946Z,92.32
2022-10-17T09:49:32.786Z,92.44
2022-10-17T09:52:02.333Z,92.56
2022-10-17T09:54:41.395Z,92.43
2022-10-17T09:57:11.467Z,92.29
2022-10-17T09:59:41.459Z,92.01
2022-10-17T10:02:15.861Z,91.54
2022-10-17T10:05:06.454Z,91.05
2022-10-17T10:07:37.294Z,90.62
2022-10-17T10:10:11.064Z,90.28
2022-10-17T10:12:40.479Z,90.26
2022-10-17T10:15:34.809Z,90.55
2022-10-17T10:18:03.018Z,90.53
2022-10-17T10:20:35.453Z,90.12
2022-10-17T10:23:11.949Z,89.92
2022-10-17T10:25:50.069Z,89.54
2022-10-17T10:28:18.767Z,89.57
2022-10-17T10:30:52.076Z,88.80
2022-10-17T10:33:21.934Z,88.62
2022-10-17T10:35:57.838Z,88.41
2022-10-17T10:38:26.490Z,87.70
2022-10-17T10:40:56.694Z,86.79
2022-10-17T10:43:34.229Z,85.23
2022-10-17T10:46:03.472Z,84.42
2022-10-17T10:48:35.297Z,82.93
2022-10-17T10:51:09.106Z,81.61
2022-10-17T10:53:46.748Z,81.39
2022-10-17T10:56:19.958Z,79.72
2022-10-17T10:58:56.386Z,79.56
2022-10-17T11:01:32.035Z,79.12
2022-10-17T11:04:15.532Z,78.64
2022-10-17T11:06:47.066Z,78.23
2022-10-17T11:09:27.877Z,77.69
2022-10-17T11:12:02.922Z,76.46
2022-10-17T11:14:41.456Z,77.16
2022-10-17T11:17:20.751Z,76.90
2022-10-17T11:19:57.380Z,76.68
2022-10-17T11:22:31.044Z,77.24
2022-10-17T11:25:04.832Z,76.94
2022-10-17T11:27:35.349Z,76.90
2022-10-17T11:30:04.721Z,77.61
2022-10-17T11:32:38.333Z,77.26
2022-10-17T11:35:16.193Z,77.14
2022-10-17T11:37:51.098Z,76.83
2022-10-17T11:40:24.615Z,77.24
2022-10-17T11:42:59.002Z,78.08
2022-10-17T11:45:30.733Z,78.53
2022-10-17T11:48:04.068Z,78.66
2022-10-17T11:53:27.088Z,79.25
2022-10-17T11:55:59.133Z,79.43
2022-10-17T11:58:36.784Z,78.86
2022-10-17T12:01:16.453Z,78.85
2022-10-17T12:03:57.679Z,78.74
2022-10-17T12:06:38.858Z,79.21
2022-10-17T12:09:17.492Z,78.90
2022-10-17T12:11:54.018Z,77.98
2022-10-17T12:14:40.763Z,78.20
2022-10-17T12:17:30.670Z,77.82
2022-10-17T12:20:31.564Z,77.44
2022-10-17T12:23:18.861Z,78.35
2022-10-17T12:25:55.907Z,79.04
2022-10-17T12:28:30.231Z,79.41
2022-10-17T12:31:05.765Z,78.69
2022-10-17T12:33:37.894Z,78.66
2022-10-17T12:36:39.752Z,77.92
2022-10-17T12:39:51.343Z,77.51
2022-10-17T12:42:46.940Z,76.63
2022-10-17T12:45:51.387Z,76.74
2022-10-17T12:48:53.102Z,77.85
2022-10-17T12:51:35.351Z,76.86
2022-10-17T12:54:13.098Z,77.26
2022-10-17T12:56:43.823Z,77.34
2022-10-17T12:59:17.812Z,77.28
2022-10-17T13:01:48.530Z,77.06
2022-10-17T13:04:17.837Z,76.28
2022-10-17T13:06:48.288Z,77.01
2022-10-17T13:09:24.818Z,75.86
2022-10-17T13:11:53.925Z,76.13
2022-10-17T13:14:24.473Z,76.20
2022-10-17T13:16:54.580Z,75.43
2022-10-17T13:19:25.223Z,75.38
2022-10-17T13:21:56.170Z,75.15
2022-10-17T13:24:30.274Z,76.08
2022-10-17T13:26:59.242Z,75.38
2022-10-17T13:29:32.058Z,76.48
2022-10-17T13:32:02.464Z,76.53
2022-10-17T13:34:31.379Z,76.04
2022-10-17T13:37:01.742Z,75.89
2022-10-17T13:39:52.497Z,75.92
2022-10-17T13:42:26.203Z,76.41
2022-10-17T13:44:56.774Z,75.80
2022-10-17T13:47:27.270Z,75.02
2022-10-17T13:49:56.515Z,75.00
2022-10-17T13:52:29.769Z,74.69
2022-10-17T13:55:08.672Z,75.49
2022-10-17T13:57:36.782Z,75.47
2022-10-17T14:00:12.486Z,75.50
2022-10-17T14:02:42.487Z,75.83
2022-10-17T14:05:18.581Z,75.89
2022-10-17T14:10:43.943Z,75.73
2022-10-17T14:13:22.770Z,75.48
2022-10-17T14:15:53.706Z,76.40
2022-10-17T14:18:25.958Z,76.28
2022-10-17T14:21:32.122Z,75.50
2022-10-17T14:23:44.746Z,76.73
2022-10-17T14:26:16.067Z,75.38
2022-10-17T14:28:46.623Z,75.12
2022-10-17T14:31:27.123Z,75.57
2022-10-17T14:33:55.944Z,75.95
2022-10-17T14:36:34.163Z,75.41
2022-10-17T14:39:03.537Z,76.34
2022-10-17T14:41:42.748Z,75.52
2022-10-17T14:44:20.568Z,75.84
2022-10-17T14:46:54.805Z,75.64
2022-10-17T14:49:30.033Z,75.41
2022-10-17T14:52:26.334Z,75.33
2022-10-17T14:54:54.957Z,75.76
2022-10-17T14:57:30.586Z,75.72
2022-10-17T14:59:59.294Z,75.62
2022-10-17T15:02:30.883Z,75.86
2022-10-17T15:04:59.359Z,75.61
2022-10-17T15:07:27.903Z,76.04
2022-10-17T15:09:56.031Z,75.63
2022-10-17T15:12:26.773Z,76.34
2022-10-17T15:14:55.348Z,76.39
2022-10-17T15:17:26.339Z,75.99
2022-10-17T15:19:55.989Z,76.06
2022-10-17T15:22:25.143Z,77.11
2022-10-17T15:24:53.629Z,77.40
2022-10-17T15:27:24.411Z,78.25
2022-10-17T15:29:53.191Z,78.58
2022-10-17T15:32:21.559Z,77.96
2022-10-17T15:34:49.798Z,78.40
2022-10-17T15:37:22.472Z,79.03
2022-10-17T15:39:53.597Z,78.96
2022-10-17T15:42:22.859Z,78.43
2022-10-17T15:44:51.160Z,78.72
2022-10-17T15:47:25.435Z,79.29
2022-10-17T15:49:54.049Z,79.96
2022-10-17T15:52:24.436Z,80.17
2022-10-17T15:54:53.307Z,80.69
2022-10-17T15:57:23.809Z,81.49
2022-10-17T15:59:53.367Z,81.59
2022-10-17T16:02:23.660Z,82.28
2022-10-17T16:04:52.968Z,82.33
2022-10-17T16:07:23.255Z,82.58
2022-10-17T16:09:51.448Z,83.19
2022-10-17T16:14:57.321Z,83.74
2022-10-17T16:17:25.466Z,84.07
2022-10-17T16:19:53.617Z,84.20
2022-10-17T16:22:29.160Z,84.57
2022-10-17T16:24:59.397Z,84.38
2022-10-17T16:27:27.615Z,83.83
2022-10-17T16:29:55.710Z,83.27
2022-10-17T16:32:23.890Z,83.45
2022-10-17T16:34:51.987Z,83.84
2022-10-17T16:37:20.070Z,84.39
2022-10-17T16:39:52.541Z,84.51
2022-10-17T16:42:21.366Z,84.46
2022-10-17T16:44:50.111Z,84.47
2022-10-17T16:47:19.451Z,84.61
2022-10-17T16:49:47.829Z,85.06
2022-10-17T16:52:16.908Z,85.28
2022-10-17T16:54:45.418Z,85.86
2022-10-17T16:57:14.886Z,85.84
2022-10-17T16:59:43.121Z,85.90
2022-10-17T17:02:12.127Z,85.63
2022-10-17T17:04:40.515Z,85.59
2022-10-17T17:07:08.757Z,85.50
2022-10-17T17:09:37.120Z,85.62
2022-10-17T17:12:05.444Z,85.81
2022-10-17T17:14:34.965Z,86.16
2022-10-17T17:17:03.148Z,86.22
2022-10-17T17:19:31.844Z,86.33
2022-10-17T17:22:00.035Z,86.47
2022-10-17T17:24:28.720Z,86.61
2022-10-17T17:26:58.764Z,86.96
2022-10-17T17:29:27.925Z,87.02
2022-10-17T17:31:57.458Z,86.95
2022-10-17T17:34:25.848Z,86.90
2022-10-17T17:36:54.041Z,86.37
2022-10-17T17:39:22.453Z,86.19
2022-10-17T17:41:50.723Z,86.24
2022-10-17T17:44:18.908Z,86.31
2022-10-17T17:46:47.932Z,86.28
2022-10-17T17:49:17.453Z,86.43
2022-10-17T17:51:46.740Z,86.66
2022-10-17T17:54:15.250Z,86.70
2022-10-17T17:56:43.657Z,86.51
2022-10-17T17:59:13.948Z,86.17
2022-10-17T18:01:42.733Z,85.84
2022-10-17T18:04:12.159Z,86.16
2022-10-17T18:06:41.890Z,86.50
2022-10-17T18:09:10.482Z,86.54
2022-10-17T18:11:39.591Z,86.36
2022-10-17T18:14:09.426Z,86.45
2022-10-17T18:16:38.994Z,86.48
2022-10-17T18:19:09.990Z,86.56
2022-10-17T18:21:39.032Z,86.69
2022-10-17T18:24:09.361Z,86.65
2022-10-17T18:26:37.700Z,86.78
2022-10-17T18:29:05.927Z,86.74
2022-10-17T18:31:35.975Z,86.67
2022-10-17T18:34:05.767Z,86.66
2022-10-17T18:36:35.839Z,86.64
2022-10-17T18:39:06.008Z,86.76
2022-10-17T18:41:36.319Z,87.08
2022-10-17T18:44:05.776Z,87.25
2022-10-17T18:46:40.447Z,87.38
2022-10-17T18:49:11.197Z,87.62
2022-10-17T18:51:40.083Z,87.84
2022-10-17T18:54:13.113Z,87.81
2022-10-17T18:56:42.798Z,87.88
2022-10-17T18:59:11.079Z,87.69
2022-10-17T19:01:39.609Z,88.05
2022-10-17T19:04:08.113Z,88.28
2022-10-17T19:06:36.540Z,88.09
2022-10-17T19:09:08.102Z,87.97
2022-10-17T19:11:37.965Z,87.97
2022-10-17T19:14:13.529Z,87.96
2022-10-17T19:16:44.395Z,87.87
2022-10-17T19:19:15.113Z,87.85
2022-10-17T19:21:44.053Z,87.88
2022-10-17T19:24:16.083Z,88.06
2022-10-17T19:26:45.515Z,88.06
2022-10-17T19:29:16.951Z,87.95
2022-10-17T19:31:45.742Z,88.28
2022-10-17T19:34:15.165Z,88.48
2022-10-17T19:36:44.091Z,88.60
2022-10-17T19:39:14.443Z,88.55
2022-10-17T19:41:43.964Z,88.71
2022-10-17T19:44:13.069Z,88.73
2022-10-17T19:46:44.397Z,88.71
2022-10-17T19:49:12.970Z,88.88
2022-10-17T19:51:41.156Z,88.96
2022-10-17T19:54:10.211Z,88.99
2022-10-17T19:56:38.548Z,88.99
2022-10-17T19:59:07.439Z,89.18
2022-10-17T20:01:38.870Z,89.03
2022-10-17T20:04:10.797Z,88.78
2022-10-17T20:06:40.199Z,88.68
2022-10-17T20:09:12.387Z,88.52
2022-10-17T20:11:44.082Z,88.43
2022-10-17T20:14:12.231Z,88.51
2022-10-17T20:16:40.485Z,88.60
2022-10-17T20:19:12.892Z,88.65
2022-10-17T20:21:41.074Z,88.79
2022-10-17T20:24:13.584Z,88.93
2022-10-17T20:26:42.681Z,89.11
2022-10-17T20:29:15.439Z,89.16
2022-10-17T20:31:45.419Z,89.21
2022-10-17T20:34:17.398Z,89.20
2022-10-17T20:36:47.062Z,89.18
2022-10-17T20:39:16.904Z,89.32
2022-10-17T20:41:45.808Z,89.37
2022-10-17T20:44:14.707Z,89.22
2022-10-17T20:46:52.940Z,89.12
2022-10-17T20:49:31.433Z,89.10
2022-10-17T20:51:59.744Z,89.08
2022-10-17T20:54:28.921Z,89.10
2022-10-17T20:56:59.854Z,88.96
2022-10-17T20:59:31.380Z,89.12
2022-10-17T21:01:59.593Z,89.24
2022-10-17T21:04:45.379Z,89.24
2022-10-17T21:07:16.294Z,89.21
2022-10-17T21:09:46.379Z,89.23
2022-10-17T21:12:21.744Z,89.34
2022-10-17T21:14:59.563Z,89.38
2022-10-17T21:17:27.849Z,89.25
2022-10-17T21:19:56.518Z,88.99
2022-10-17T21:22:26.092Z,88.89
2022-10-17T21:24:54.203Z,89.05
2022-10-17T21:27:22.616Z,88.99
2022-10-17T21:29:52.106Z,89.02
2022-10-17T21:32:33.359Z,89.15
2022-10-17T21:35:09.010Z,89.13
2022-10-17T21:37:39.264Z,89.21
2022-10-17T21:40:09.163Z,89.24
2022-10-17T21:42:37.495Z,89.32
2022-10-17T21:45:14.997Z,89.42
2022-10-17T21:48:11.595Z,89.38
2022-10-17T21:50:36.646Z,89.20
2022-10-17T21:53:09.615Z,89.24
2022-10-17T21:55:42.401Z,89.29
2022-10-17T21:58:16.555Z,89.54
2022-10-17T22:00:46.811Z,89.61
2022-10-17T22:03:15.237Z,89.63
2022-10-17T22:05:50.430Z,89.75
2022-10-17T22:08:22.882Z,89.95
2022-10-17T22:10:57.017Z,90.15
2022-10-17T22:13:28.034Z,90.21
2022-10-17T22:16:03.928Z,89.96
2022-10-17T22:18:32.556Z,89.65
2022-10-17T22:21:05.035Z,89.55
2022-10-17T22:23:38.326Z,89.60
2022-10-17T22:26:07.622Z,89.75
2022-10-17T22:28:36.491Z,89.67
2022-10-17T22:31:04.679Z,89.54
2022-10-17T22:33:33.412Z,89.50
2022-10-17T22:36:01.610Z,89.70
2022-10-17T22:38:30.161Z,89.66
2022-10-17T22:40:59.714Z,89.87
2022-10-17T22:43:28.176Z,90.03
2022-10-17T22:45:58.749Z,89.96
2022-10-17T22:48:27.815Z,89.94
2022-10-17T22:50:57.858Z,90.02
2022-10-17T22:53:27.047Z,90.01
2022-10-17T22:55:57.600Z,89.96
2022-10-17T22:58:28.063Z,90.02
2022-10-17T23:00:56.702Z,90.10
2022-10-17T23:03:26.212Z,90.08
2022-10-17T23:05:54.729Z,90.07
2022-10-17T23:08:22.952Z,90.07
2022-10-17T23:10:51.143Z,89.93
2022-10-17T23:13:19.931Z,89.94
2022-10-17T23:15:51.617Z,89.97
2022-10-17T23:18:21.242Z,89.93
2022-10-17T23:20:49.890Z,89.69
2022-10-17T23:23:18.791Z,89.60
2022-10-17T23:25:47.020Z,89.53
2022-10-17T23:28:15.861Z,89.54
2022-10-17T23:30:44.024Z,89.58
2022-10-17T23:33:14.539Z,89.60
2022-10-17T23:35:45.829Z,89.76
2022-10-17T23:38:16.382Z,89.65
2022-10-17T23:40:44.868Z,89.51
2022-10-17T23:43:13.059Z,89.15
2022-10-17T23:48:15.587Z,88.67
2022-10-17T23:50:44.376Z,88.62
2022-10-17T23:53:12.555Z,88.77
2022-10-17T23:55:40.787Z,89.00
2022-10-17T23:58:08.907Z,89.16
